Latest Weather Observations for Ivanhoe Airport

IDN60801

Issued at 8:05 pm EST Friday 25 July 2014 (issued every 30 minutes, with the page automatically refreshed every 10 minutes)

About weather observations | Map of weather stations | Latest weather observations for NSW | Other Formats
Station Details ID: 049000 Name: IVANHOE AERODROME AWS Lat: -32.88 Lon: 144.31 Height: 100.0 m
Data from the previous 72 hours. | See also: Recent months at Ivanhoe Airport
Date/Time
EST
Temp
°C
App
Temp
°C
Dew
Point
Rel
Hum
%
Delta-T
°C
Wind Press
QNH
hPa
Press
MSL
hPa
Rain
since 9 am
mm
Dir
 
Spd
km/h
Gust
km/h
Spd
kts
Gust
kts
25/08:00pm 14.0 10.3 4.6 53 4.3 NNW 13 20 7 11 1021.7 1021.8 0.0
25/07:30pm 13.4 10.7 3.5 51 4.5 NW 7 9 4 5 1021.4 - 0.0
25/07:00pm 14.2 11.5 3.9 50 4.7 WNW 7 13 4 7 1021.2 1021.3 0.0
25/06:30pm 15.2 12.7 4.0 47 5.2 W 6 7 3 4 1020.6 - 0.0
25/06:00pm 15.8 12.8 3.9 45 5.5 W 9 11 5 6 1020.4 1020.5 0.0
25/05:30pm 16.5 13.4 3.6 42 6.0 WNW 9 15 5 8 1019.9 - 0.0
25/05:00pm 19.2 15.3 3.4 35 7.4 NW 13 20 7 11 1019.6 1019.7 0.0
25/04:30pm 20.0 16.6 4.1 35 7.7 W 11 17 6 9 1019.3 - 0.0
25/04:00pm 19.0 14.7 3.2 35 7.4 WNW 15 20 8 11 1019.2 1019.3 0.0
25/03:30pm 20.4 15.1 3.2 32 8.2 NW 20 26 11 14 1019.1 - 0.0
25/03:00pm 20.3 15.1 3.5 33 8.0 NW 20 28 11 15 1019.1 1019.2 0.0
25/02:30pm 21.0 15.9 3.2 31 8.5 NNW 19 28 10 15 1018.9 - 0.0
25/02:00pm 20.8 16.3 4.4 34 8.0 NNW 17 26 9 14 1018.8 1018.9 0.0
25/01:30pm 20.2 15.4 4.7 36 7.6 NNW 19 35 10 19 1019.0 - 0.0
25/01:00pm 19.9 16.3 5.2 38 7.2 WNW 13 20 7 11 1019.4 1019.5 0.0
25/12:30pm 19.1 15.5 4.8 39 6.9 WNW 13 20 7 11 1020.0 - 0.0
25/12:00pm 19.1 15.8 6.2 43 6.4 NW 13 20 7 11 1020.6 1020.7 0.0
25/11:30am 18.3 15.8 6.5 46 5.9 WNW 9 17 5 9 1021.0 - 0.0
25/11:00am 17.3 14.9 6.8 50 5.2 NNW 9 13 5 7 1021.2 1021.3 0.0
25/10:30am 16.4 13.6 6.8 53 4.8 NW 11 15 6 8 1021.3 - 0.0
25/10:00am 15.0 12.4 6.3 56 4.2 NW 9 13 5 7 1021.1 1021.2 0.0
25/09:30am 13.6 10.6 6.0 60 3.6 NW 11 15 6 8 1020.9 - 0.0
25/09:00am 11.8 8.3 5.4 65 3.0 NNW 13 19 7 10 1020.5 1020.6 0.0
25/08:30am 9.9 6.7 5.1 72 2.2 NNW 11 17 6 9 1020.4 - 0.0
25/08:00am 8.0 4.3 4.6 79 1.5 N 13 17 7 9 1020.1 1020.2 0.0
25/07:30am 6.5 2.7 4.0 84 1.1 N 13 17 7 9 1019.5 - 0.0
25/07:00am 5.4 1.4 2.8 83 1.1 N 13 15 7 8 1019.1 1019.2 0.0
25/06:30am 6.2 2.7 3.4 82 1.2 N 11 13 6 7 1018.7 - 0.0
25/06:00am 6.9 2.8 4.2 83 1.2 N 15 17 8 9 1018.4 1018.5 0.0
25/05:30am 6.0 1.8 3.8 86 0.9 N 15 17 8 9 1017.8 - 0.0
25/05:00am 5.7 2.1 3.2 84 1.0 N 11 15 6 8 1017.3 1017.4 0.0
25/04:30am 7.4 3.7 4.2 80 1.4 N 13 15 7 8 1017.2 - 0.0
25/04:00am 7.9 4.2 4.5 79 1.5 N 13 15 7 8 1016.9 1017.0 0.0
25/03:30am 7.6 4.2 4.0 78 1.6 N 11 13 6 7 1016.9 - 0.0
25/03:00am 8.6 5.0 4.8 77 1.7 N 13 15 7 8 1016.8 1016.9 0.0
25/02:30am 8.9 5.3 5.1 77 1.7 NNW 13 15 7 8 1016.7 - 0.0
25/02:00am 9.3 5.7 4.9 74 2.0 NW 13 17 7 9 1016.5 1016.6 0.0
25/01:30am 8.1 4.7 3.8 74 1.9 N 11 13 6 7 1016.3 - 0.0
25/01:00am 8.5 4.7 3.9 73 2.0 N 13 13 7 7 1016.2 1016.4 0.0
25/12:30am 10.0 7.2 5.2 72 2.2 NW 9 11 5 6 1016.2 - 0.0
25/12:00am 10.1 7.2 4.7 69 2.4 NW 9 13 5 7 1016.3 1016.5 0.0
 
Date/Time
EST
Temp
°C
App
Temp
°C
Dew
Point
Rel
Hum
%
Delta-T
°C
Wind Press
QNH
hPa
Press
MSL
hPa
Rain
since 9 am
mm
Dir
 
Spd
km/h
Gust
km/h
Spd
kts
Gust
kts
24/11:30pm 10.3 7.1 4.9 69 2.4 WNW 11 13 6 7 1016.3 - 0.0
24/11:00pm 10.8 7.5 4.7 66 2.8 NNW 11 13 6 7 1016.3 1016.5 0.0
24/10:30pm 10.9 7.6 4.6 65 2.9 NW 11 13 6 7 1016.5 - 0.0
24/10:00pm 11.4 8.5 4.4 62 3.2 NW 9 11 5 6 1016.3 1016.5 0.0
24/09:30pm 11.8 8.8 4.3 60 3.4 NW 9 13 5 7 1016.0 - 0.0
24/09:00pm 12.5 9.1 4.0 56 3.8 NW 11 13 6 7 1015.8 1016.0 0.0
24/08:30pm 13.6 10.6 4.2 53 4.3 NW 9 11 5 6 1015.5 - 0.0
24/08:00pm 13.7 11.1 4.0 52 4.4 NW 7 9 4 5 1015.1 1015.2 0.0
24/07:30pm 14.4 11.4 4.1 50 4.7 NW 9 11 5 6 1014.7 - 0.0
24/07:00pm 14.6 11.1 3.7 48 5.0 WNW 11 13 6 7 1014.3 1014.4 0.0
24/06:30pm 15.7 11.8 3.5 44 5.6 NW 13 15 7 8 1013.8 - 0.0
24/06:00pm 17.0 12.7 3.3 40 6.3 NW 15 17 8 9 1013.5 1013.6 0.0
24/05:30pm 18.9 13.7 3.5 36 7.3 NW 20 30 11 16 1012.9 - 0.0
24/05:00pm 19.9 14.3 3.2 33 7.9 NW 22 32 12 17 1012.4 1012.5 0.0
24/04:30pm 20.7 15.0 3.0 31 8.4 NNW 22 30 12 16 1012.1 - 0.0
24/04:00pm 21.1 14.3 2.9 30 8.6 NNW 28 41 15 22 1011.8 1011.9 0.0
24/03:30pm 21.2 14.8 3.0 30 8.7 NNW 26 41 14 22 1011.6 - 0.0
24/03:00pm 21.0 14.1 2.8 30 8.6 NNW 28 41 15 22 1011.4 1011.5 0.0
24/02:30pm 21.4 15.4 3.6 31 8.6 NNW 24 41 13 22 1011.5 - 0.0
24/02:00pm 21.3 13.9 2.1 28 9.0 NNW 30 43 16 23 1011.7 1011.8 0.0
24/01:39pm 21.2 13.8 2.0 28 9.0 NNW 30 48 16 26 1011.9 - 0.0
24/01:30pm 20.9 13.6 2.7 30 8.6 NNW 30 46 16 25 1012.0 - 0.0
24/01:00pm 21.2 14.4 3.0 30 8.7 NNW 28 48 15 26 1012.4 1012.5 0.0
24/12:30pm 20.7 13.0 2.5 30 8.5 NNW 32 50 17 27 1012.8 - 0.0
24/12:26pm 21.1 14.2 2.4 29 8.8 NNW 28 46 15 25 1012.8 - 0.0
24/12:00pm 20.6 13.4 2.9 31 8.4 N 30 41 16 22 1013.2 1013.3 0.0
24/11:30am 19.8 13.9 3.9 35 7.6 N 24 37 13 20 1013.6 - 0.0
24/11:00am 18.8 12.1 5.6 42 6.5 N 30 37 16 20 1013.8 1013.9 0.0
24/10:30am 17.6 11.3 5.9 46 5.7 NNE 28 37 15 20 1014.1 - 0.0
24/10:00am 16.0 11.1 7.0 55 4.5 NNE 22 28 12 15 1014.7 1014.8 0.0
24/09:30am 13.5 8.3 7.1 65 3.1 NNE 24 30 13 16 1014.9 - 0.0
24/09:00am 12.2 7.3 6.9 70 2.5 NE 22 28 12 15 1014.9 1015.0 0.6
24/08:30am 11.7 7.4 7.2 74 2.2 NE 19 22 10 12 1014.8 - 0.6
24/08:00am 10.1 6.6 7.0 81 1.5 NE 15 17 8 9 1014.5 1014.6 0.6
24/07:30am 10.0 6.9 7.4 84 1.2 NE 13 17 7 9 1014.5 - 0.6
24/07:00am 8.9 5.9 7.5 91 0.7 ENE 13 17 7 9 1014.5 1014.6 0.4
24/06:30am 8.7 6.1 7.8 94 0.4 ENE 11 13 6 7 1014.4 - 0.4
24/06:00am 9.0 6.7 7.5 90 0.7 NE 9 13 5 7 1014.4 1014.5 0.4
24/05:30am 9.6 6.6 7.7 88 0.9 E 13 17 7 9 1014.3 - 0.4
24/05:00am 10.3 8.4 7.7 84 1.3 NNE 7 11 4 6 1014.8 1014.9 0.4
24/04:30am 11.5 8.5 5.8 68 2.7 NNE 11 15 6 8 1015.3 - 0.0
24/04:00am 11.7 8.7 5.8 67 2.8 N 11 15 6 8 1015.6 1015.7 0.0
24/03:30am 11.7 8.7 6.0 68 2.7 NNW 11 15 6 8 1015.6 - 0.0
24/03:00am 10.7 8.4 5.5 70 2.4 NNE 7 9 4 5 1015.2 1015.3 0.0
24/02:30am 10.9 8.2 5.4 69 2.5 NNE 9 11 5 6 1015.2 - 0.0
24/02:00am 11.6 8.9 5.5 66 2.8 NNE 9 13 5 7 1015.4 1015.5 0.0
24/01:30am 12.2 8.7 5.6 64 3.1 NNE 13 17 7 9 1015.2 - 0.0
24/01:00am 12.8 8.6 5.7 62 3.3 NNE 17 22 9 12 1015.1 1015.2 0.0
24/12:30am 12.6 8.8 5.8 63 3.2 NE 15 19 8 10 1015.1 - 0.0
24/12:00am 12.3 8.9 5.7 64 3.1 NE 13 17 7 9 1015.4 1015.5 0.0
 
Date/Time
EST
Temp
°C
App
Temp
°C
Dew
Point
Rel
Hum
%
Delta-T
°C
Wind Press
QNH
hPa
Press
MSL
hPa
Rain
since 9 am
mm
Dir
 
Spd
km/h
Gust
km/h
Spd
kts
Gust
kts
23/11:30pm 11.6 8.2 5.7 67 2.8 NE 13 17 7 9 1015.6 - 0.0
23/11:00pm 11.9 8.0 5.5 65 3.0 NE 15 19 8 10 1015.8 1016.0 0.0
23/10:30pm 12.2 8.4 5.8 65 3.0 NE 15 17 8 9 1016.2 - 0.0
23/10:00pm 12.3 8.9 5.9 65 3.0 NE 13 15 7 8 1016.7 1016.8 0.0
23/09:30pm 12.8 9.4 5.9 63 3.3 NE 13 15 7 8 1017.0 - 0.0
23/09:00pm 13.2 10.2 5.9 61 3.5 NE 11 13 6 7 1017.2 1017.3 0.0
23/08:30pm 13.6 10.6 6.0 60 3.6 NE 11 13 6 7 1017.5 - 0.0
23/08:00pm 13.9 11.0 6.3 60 3.7 ENE 11 13 6 7 1017.5 1017.6 0.0
23/07:30pm 13.8 11.3 6.4 61 3.6 ENE 9 11 5 6 1017.5 - 0.0
23/07:00pm 14.0 11.5 6.4 60 3.7 ENE 9 11 5 6 1017.7 1017.8 0.0
23/06:30pm 14.8 12.3 6.4 57 4.1 ENE 9 11 5 6 1017.6 - 0.0
23/06:00pm 15.4 12.8 6.1 54 4.5 NE 9 13 5 7 1017.6 1017.7 0.0
23/05:30pm 16.2 13.3 6.6 53 4.7 NE 11 15 6 8 1017.7 - 0.0
23/05:00pm 17.0 13.7 6.5 50 5.2 NE 13 17 7 9 1017.9 1018.0 0.0
23/04:30pm 17.5 13.4 6.4 48 5.5 NNE 17 20 9 11 1017.8 - 0.0
23/04:00pm 17.7 13.6 6.3 47 5.6 N 17 22 9 12 1017.7 1017.8 0.0
23/03:30pm 18.5 14.4 6.4 45 6.0 N 17 26 9 14 1017.7 - 0.0
23/03:00pm 18.1 14.3 6.0 45 6.0 N 15 20 8 11 1017.9 1018.0 0.0
23/02:30pm 18.2 13.6 5.8 44 6.1 N 19 26 10 14 1018.2 - 0.0
23/02:00pm 18.4 14.3 6.3 45 6.0 NNE 17 20 9 11 1018.6 1018.7 0.0
23/01:30pm 18.0 14.0 6.5 47 5.7 NNE 17 22 9 12 1018.8 - 0.0
23/01:00pm 18.0 14.1 7.1 49 5.5 NNE 17 24 9 13 1019.4 1019.5 0.0
23/12:30pm 17.0 13.0 6.8 51 5.1 NE 17 26 9 14 1019.6 - 0.0
23/12:00pm 16.5 12.9 6.9 53 4.8 NNE 15 20 8 11 1020.9 1021.0 0.0
23/11:30am 15.8 12.3 7.3 57 4.2 NE 15 19 8 10 1021.3 - 0.0
23/11:00am 14.3 11.4 6.4 59 3.8 NE 11 17 6 9 1022.0 1022.1 0.0
23/10:30am 11.7 8.2 5.6 66 2.8 ENE 13 17 7 9 1022.0 - 0.0
23/10:00am 9.9 6.6 4.7 70 2.3 ENE 11 15 6 8 1022.4 1022.5 0.0
23/09:30am 9.1 5.3 4.1 71 2.2 ENE 13 15 7 8 1022.6 - 0.0
23/09:00am 8.3 4.5 3.8 73 1.9 ENE 13 15 7 8 1022.6 1022.7 0.0
23/08:30am 6.1 2.1 2.6 78 1.4 ENE 13 15 7 8 1022.6 - 0.0
23/08:00am 4.8 0.7 2.2 83 1.0 ENE 13 15 7 8 1022.7 1022.8 0.0
23/07:30am 3.7 0.3 1.6 86 0.8 ENE 9 11 5 6 1022.6 - 0.0
23/07:00am 3.7 -0.5 1.4 85 0.9 E 13 13 7 7 1022.3 1022.4 0.0
23/06:30am 3.1 -1.2 1.0 86 0.8 ENE 13 13 7 7 1022.3 - 0.0
23/06:00am 3.5 -0.8 0.9 83 1.0 E 13 15 7 8 1022.0 1022.1 0.0
23/05:30am 3.8 -0.4 1.4 84 0.9 E 13 15 7 8 1021.9 - 0.0
23/05:00am 3.4 -1.3 1.1 85 0.9 E 15 15 8 8 1021.8 1021.9 0.0
23/04:30am 3.2 -1.1 0.9 85 0.9 E 13 15 7 8 1022.0 - 0.0
23/04:00am 3.6 -0.7 1.2 84 0.9 ESE 13 15 7 8 1022.2 1022.3 0.0
23/03:30am 3.6 -0.3 1.3 85 0.9 ESE 11 13 6 7 1022.3 - 0.0
23/03:00am 3.9 0.4 1.3 83 1.0 SE 9 11 5 6 1022.3 1022.4 0.0
23/02:30am 4.2 0.4 1.6 83 1.0 ESE 11 13 6 7 1022.0 - 0.0
23/02:00am 4.4 0.6 1.8 83 1.0 ESE 11 13 6 7 1022.1 1022.2 0.0
23/01:30am 4.7 0.9 1.9 82 1.1 ESE 11 13 6 7 1022.3 - 0.0
23/01:00am 4.9 1.5 1.9 81 1.2 ESE 9 11 5 6 1022.5 1022.6 0.0
23/12:30am 5.2 1.4 1.9 79 1.3 ESE 11 11 6 6 1022.6 - 0.0
23/12:00am 5.7 2.0 2.2 78 1.4 SE 11 11 6 6 1022.9 1023.0 0.0
 
Date/Time
EST
Temp
°C
App
Temp
°C
Dew
Point
Rel
Hum
%
Delta-T
°C
Wind Press
QNH
hPa
Press
MSL
hPa
Rain
since 9 am
mm
Dir
 
Spd
km/h
Gust
km/h
Spd
kts
Gust
kts
22/11:30pm 5.9 2.6 2.2 77 1.5 SE 9 9 5 5 1023.2 - 0.0
22/11:00pm 6.3 2.6 2.2 75 1.7 SE 11 13 6 7 1023.0 1023.1 0.0
22/10:30pm 6.7 3.0 2.2 73 1.9 SE 11 13 6 7 1022.9 - 0.0
22/10:00pm 7.2 3.1 2.3 71 2.0 SE 13 15 7 8 1023.0 1023.1 0.0
22/09:30pm 8.5 4.1 2.5 66 2.5 SSE 15 17 8 9 1023.0 - 0.0
22/09:00pm 9.3 5.3 2.9 64 2.7 SSE 13 19 7 10 1022.9 1023.0 0.0
22/08:30pm 9.1 5.1 2.9 65 2.7 SSE 13 17 7 9 1022.9 - 0.0

Other Formats:

Comma delimited format used in spreadsheet applications
http://www.bom.gov.au/fwo/IDN60801/IDN60801.95697.axf

JavaScript Object Notation format (JSON) in row-major order
http://www.bom.gov.au/fwo/IDN60801/IDN60801.95697.json